Time;durP1;ratioP1;P1;durP2;ratioP2;P2;SDS_P1;SDS_P2;PMS_P1;PMS_P2;Temp;Humidity;BMP_temperature;BMP_pressure;BME280_temperature;BME280_humidity;BME280_pressure;Samples;Min_cycle;Max_cycle;Signal;HPM_P1;HPM_P2
2021/07/23 00:01:45;;;;;;;6.25;4.00;;;;;;;24.45;44.11;100592.64;1453521;89;21501;-63
2021/07/23 00:04:11;;;;;;;7.33;4.35;;;;;;;24.43;44.18;100595.31;1459794;89;21487;-63
2021/07/23 00:06:37;;;;;;;5.03;4.17;;;;;;;24.41;44.21;100596.04;1463237;89;21273;-63
2021/07/23 00:09:04;;;;;;;7.60;4.37;;;;;;;24.39;44.25;100594.91;1459849;89;21405;-64
2021/07/23 00:11:31;;;;;;;5.15;4.53;;;;;;;24.39;44.23;100595.44;1444846;89;21561;-64
2021/07/23 00:13:57;;;;;;;6.17;4.25;;;;;;;24.37;44.28;100594.84;1444255;89;21619;-64
2021/07/23 00:16:23;;;;;;;11.33;5.25;;;;;;;24.36;44.31;100598.08;1432800;89;22508;-64
2021/07/23 00:18:49;;;;;;;5.97;4.67;;;;;;;24.35;44.43;100599.69;1459152;89;21418;-63
2021/07/23 00:21:16;;;;;;;5.12;4.08;;;;;;;24.34;44.43;100600.22;1475130;89;21493;-63
2021/07/23 00:23:42;;;;;;;4.90;4.08;;;;;;;24.33;44.48;100601.25;1468647;89;22429;-63
2021/07/23 00:26:13;;;;;;;4.58;4.00;;;;;;;24.33;44.45;100599.37;1463360;89;21443;-64
2021/07/23 00:28:41;;;;;;;7.45;3.87;;;;;;;24.32;44.48;100600.44;1436942;89;22464;-63
2021/07/23 00:31:07;;;;;;;5.08;4.00;;;;;;;24.31;44.51;100600.66;1445972;89;21442;-63
2021/07/23 00:33:34;;;;;;;8.90;4.55;;;;;;;24.30;44.56;100606.60;1460085;89;22434;-63
2021/07/23 00:36:01;;;;;;;9.88;4.92;;;;;;;24.28;44.55;100600.63;1463825;89;21405;-63
2021/07/23 00:38:28;;;;;;;7.20;4.45;;;;;;;24.27;44.63;100597.61;1452397;89;21354;-63
2021/07/23 00:40:54;;;;;;;5.55;4.20;;;;;;;24.26;44.63;100600.56;1473583;89;21435;-63
2021/07/23 00:43:20;;;;;;;7.67;4.83;;;;;;;24.25;44.58;100593.48;1454227;89;23127;-63
2021/07/23 00:45:47;;;;;;;6.10;5.20;;;;;;;24.24;44.68;100599.42;1461605;89;21480;-63
2021/07/23 00:48:14;;;;;;;5.85;4.45;;;;;;;24.22;44.71;100601.53;1476010;89;21420;-63
2021/07/23 00:50:41;;;;;;;8.30;4.92;;;;;;;24.20;44.78;100596.91;1457207;89;21346;-63
2021/07/23 00:53:10;;;;;;;7.37;4.72;;;;;;;24.20;44.75;100598.27;1446105;89;22368;-63
2021/07/23 00:55:40;;;;;;;7.50;4.50;;;;;;;24.19;44.76;100590.37;1459881;89;21375;-63
2021/07/23 00:58:07;;;;;;;5.95;4.70;;;;;;;24.18;44.77;100589.55;1461781;89;22375;-63
2021/07/23 01:00:34;;;;;;;5.90;3.75;;;;;;;24.17;44.81;100593.32;1469003;89;21500;-63
2021/07/23 01:03:01;;;;;;;4.83;3.90;;;;;;;24.18;44.84;100590.91;1461783;89;21361;-63
2021/07/23 01:05:28;;;;;;;8.08;4.12;;;;;;;24.17;44.84;100587.91;1438175;89;21421;-63
2021/07/23 01:07:55;;;;;;;10.20;4.53;;;;;;;24.17;44.90;100597.38;1445364;89;21316;-64
2021/07/23 01:10:22;;;;;;;5.53;3.95;;;;;;;24.16;44.89;100588.95;1459463;89;21332;-63
2021/07/23 01:12:50;;;;;;;6.78;4.70;;;;;;;24.15;44.93;100590.02;1434175;89;21472;-63
2021/07/23 01:15:16;;;;;;;12.00;5.08;;;;;;;24.14;44.97;100587.03;1459690;89;21281;-63
2021/07/23 01:17:42;;;;;;;5.03;4.03;;;;;;;24.12;44.95;100582.38;1481257;89;21442;-63
2021/07/23 01:20:25;;;;;;;5.35;3.87;;;;;;;24.10;44.96;100587.18;1444918;89;21324;-64
2021/07/23 01:22:54;;;;;;;7.00;4.35;;;;;;;24.11;44.97;100580.73;1470894;89;21287;-64
2021/07/23 01:25:23;;;;;;;6.27;4.77;;;;;;;24.08;45.05;100576.62;1462225;89;21456;-63
2021/07/23 01:27:50;;;;;;;5.92;4.78;;;;;;;24.08;45.08;100578.47;1461070;89;21406;-63
2021/07/23 01:30:21;;;;;;;8.20;5.12;;;;;;;24.07;45.12;100576.84;1470234;89;21412;-63
2021/07/23 01:32:47;;;;;;;6.35;4.40;;;;;;;24.06;45.15;100572.50;1454102;89;22433;-63
2021/07/23 01:35:14;;;;;;;8.63;4.53;;;;;;;24.06;45.18;100572.50;1463590;89;21354;-63
2021/07/23 01:37:42;;;;;;;6.37;4.58;;;;;;;24.04;45.17;100570.55;1456487;89;21404;-63
2021/07/23 01:40:09;;;;;;;7.37;5.25;;;;;;;24.04;45.20;100565.95;1452383;89;21376;-63
2021/07/23 01:42:37;;;;;;;6.72;4.35;;;;;;;24.04;45.16;100570.02;1457080;89;21486;-63
2021/07/23 01:45:04;;;;;;;6.90;4.40;;;;;;;24.04;45.23;100569.19;1442893;89;21523;-63
2021/07/23 01:47:31;;;;;;;8.73;4.37;;;;;;;24.02;45.25;100566.71;1457058;89;22493;-63
2021/07/23 01:49:57;;;;;;;7.53;4.42;;;;;;;24.01;45.25;100566.42;1442619;89;21450;-63
2021/07/23 01:52:24;;;;;;;8.58;4.58;;;;;;;24.01;45.28;100573.19;1437259;89;21376;-63
2021/07/23 01:54:50;;;;;;;7.30;4.77;;;;;;;24.01;45.32;100566.96;1461988;89;21436;-64
2021/07/23 01:57:17;;;;;;;5.42;4.20;;;;;;;24.00;45.31;100573.44;1437305;89;21450;-63
2021/07/23 01:59:44;;;;;;;8.70;4.83;;;;;;;23.98;45.29;100568.78;1461172;89;21369;-63
2021/07/23 02:02:10;;;;;;;7.83;4.40;;;;;;;23.97;45.30;100571.20;1455989;89;21605;-64
2021/07/23 02:04:37;;;;;;;6.55;4.58;;;;;;;23.95;45.32;100565.19;1471900;89;21480;-64
2021/07/23 02:07:04;;;;;;;6.45;5.65;;;;;;;23.93;45.36;100570.00;1459585;89;22131;-64
2021/07/23 02:09:30;;;;;;;5.78;4.30;;;;;;;23.85;45.40;100565.73;1453914;89;21494;-64
2021/07/23 02:11:56;;;;;;;6.87;5.03;;;;;;;23.88;45.47;100576.11;1461384;89;21361;-64
2021/07/23 02:14:24;;;;;;;5.72;4.45;;;;;;;23.90;45.56;100581.27;1442100;89;21457;-64
2021/07/23 02:16:51;;;;;;;7.58;4.10;;;;;;;23.91;45.58;100581.56;1438646;89;21586;-63
2021/07/23 02:19:17;;;;;;;7.95;4.97;;;;;;;23.92;45.57;100573.77;1469458;89;21348;-63
2021/07/23 02:21:44;;;;;;;5.65;4.25;;;;;;;23.92;45.71;100573.77;1447754;89;22507;-63
2021/07/23 02:24:10;;;;;;;4.37;3.87;;;;;;;23.91;45.61;100570.75;1453004;89;21517;-64
2021/07/23 02:26:36;;;;;;;8.33;4.87;;;;;;;23.91;45.61;100566.69;1462742;89;21505;-63
2021/07/23 02:29:03;;;;;;;6.45;4.58;;;;;;;23.91;45.63;100563.98;1459488;89;21508;-63
2021/07/23 02:31:29;;;;;;;6.65;4.85;;;;;;;23.91;45.62;100568.89;1467016;89;21413;-64
2021/07/23 02:33:55;;;;;;;6.53;4.40;;;;;;;23.93;45.66;100565.94;1460656;89;21534;-63
2021/07/23 02:36:21;;;;;;;7.80;4.55;;;;;;;23.92;45.65;100560.25;1461912;89;21530;-63
2021/07/23 02:38:48;;;;;;;6.75;5.35;;;;;;;23.93;45.69;100564.59;1462205;89;21383;-63
2021/07/23 02:41:14;;;;;;;6.45;4.40;;;;;;;23.93;45.66;100560.53;1441564;89;21613;-63
2021/07/23 02:43:40;;;;;;;7.58;4.33;;;;;;;23.94;45.69;100562.17;1465002;89;21585;-63
2021/07/23 02:46:06;;;;;;;6.50;4.37;;;;;;;23.92;45.69;100552.14;1458819;89;22492;-63
2021/07/23 02:48:32;;;;;;;6.92;4.78;;;;;;;23.93;45.66;100556.48;1463978;89;21468;-63
2021/07/23 02:50:59;;;;;;;6.70;5.12;;;;;;;23.93;45.66;100555.13;1467403;89;22220;-63
2021/07/23 02:53:25;;;;;;;6.67;4.75;;;;;;;23.93;45.69;100558.65;1454226;89;21567;-63
2021/07/23 02:55:51;;;;;;;6.10;4.70;;;;;;;23.93;45.69;100558.65;1457991;89;21449;-63
2021/07/23 02:58:18;;;;;;;9.50;4.47;;;;;;;23.93;45.74;100561.36;1465650;89;22411;-63
2021/07/23 03:00:45;;;;;;;6.62;4.12;;;;;;;23.94;45.76;100555.41;1444782;89;21571;-63
2021/07/23 03:03:12;;;;;;;6.90;4.53;;;;;;;23.92;45.77;100549.44;1458176;89;21338;-64
2021/07/23 03:05:39;;;;;;;7.65;4.80;;;;;;;23.91;45.82;100553.18;1464806;89;21442;-63
2021/07/23 03:08:08;;;;;;;17.90;14.95;;;;;;;23.91;45.82;100553.18;1467948;89;22322;-63
2021/07/23 03:10:34;;;;;;;7.40;5.72;;;;;;;23.92;45.82;100550.80;1475075;89;21532;-63
2021/07/23 03:13:00;;;;;;;9.55;5.33;;;;;;;23.90;45.85;100549.66;1453127;89;22581;-63
2021/07/23 03:15:27;;;;;;;6.75;4.70;;;;;;;23.90;45.84;100541.55;1462054;89;21509;-63
2021/07/23 03:17:53;;;;;;;5.42;4.83;;;;;;;23.89;45.87;100535.05;1458129;89;22381;-64
2021/07/23 03:20:19;;;;;;;6.00;3.95;;;;;;;23.86;45.88;100546.61;1452666;89;22212;-63
2021/07/23 03:22:46;;;;;;;6.87;4.83;;;;;;;23.90;45.93;100554.25;1476014;89;21428;-63
2021/07/23 03:25:13;;;;;;;10.45;5.15;;;;;;;23.92;45.90;100554.84;1453566;89;21428;-63
2021/07/23 03:27:39;;;;;;;6.58;4.70;;;;;;;23.91;45.91;100541.02;1456237;89;21258;-63
2021/07/23 03:30:08;;;;;;;10.90;4.90;;;;;;;23.91;45.92;100539.66;1455631;89;21421;-63
2021/07/23 03:32:34;;;;;;;7.35;4.72;;;;;;;23.90;45.83;100546.14;1446115;89;21405;-63
2021/07/23 03:35:00;;;;;;;5.65;4.08;;;;;;;23.86;45.78;100535.80;1472026;89;21560;-64
2021/07/23 03:37:26;;;;;;;6.12;5.17;;;;;;;23.81;45.83;100532.95;1450869;89;21420;-63
2021/07/23 03:39:52;;;;;;;9.35;4.78;;;;;;;23.78;45.90;100523.15;1452287;89;21376;-64
2021/07/23 03:42:19;;;;;;;7.55;5.47;;;;;;;23.73;45.96;100529.23;1460244;89;21560;-63
2021/07/23 03:44:46;;;;;;;5.67;4.33;;;;;;;23.72;46.02;100521.38;1461278;89;22205;-63
2021/07/23 03:47:13;;;;;;;7.65;4.47;;;;;;;23.69;45.86;100531.27;1456007;89;22360;-64
2021/07/23 03:49:39;;;;;;;7.03;4.40;;;;;;;23.69;46.16;100528.56;1455532;89;21626;-63
2021/07/23 03:52:07;;;;;;;6.30;4.58;;;;;;;23.63;46.20;100522.21;1456436;89;22335;-63
2021/07/23 03:54:33;;;;;;;5.70;4.65;;;;;;;23.68;46.35;100533.66;1477292;89;22462;-63
2021/07/23 03:57:01;;;;;;;7.03;4.40;;;;;;;23.68;46.28;100541.77;1454894;89;21398;-63
2021/07/23 03:59:27;;;;;;;5.20;3.90;;;;;;;23.68;46.41;100538.56;1451471;89;21369;-63
2021/07/23 04:01:53;;;;;;;7.72;4.85;;;;;;;23.69;46.38;100546.95;1469135;89;22338;-63
2021/07/23 04:04:20;;;;;;;8.03;5.30;;;;;;;23.70;46.40;100543.22;1461414;89;21309;-62
2021/07/23 04:06:46;;;;;;;8.38;5.22;;;;;;;23.70;46.41;100536.45;1460672;89;21494;-63
2021/07/23 04:09:12;;;;;;;6.90;4.87;;;;;;;23.71;46.40;100538.63;1455873;89;22220;-63
2021/07/23 04:14:26;;;;;;;8.85;4.92;;;;;;;23.69;46.37;100545.59;1430580;91;21583;-62
2021/07/23 04:16:52;;;;;;;9.35;4.78;;;;;;;23.69;46.45;100548.30;1406210;93;21520;-62
2021/07/23 04:19:18;;;;;;;8.83;4.95;;;;;;;23.68;46.39;100542.61;1401140;93;21356;-62
2021/07/23 04:21:44;;;;;;;10.15;5.45;;;;;;;23.68;46.41;100546.66;1418294;93;21651;-62
2021/07/23 04:24:11;;;;;;;7.58;4.78;;;;;;;23.69;46.41;100554.23;1400833;93;21587;-62
2021/07/23 04:26:37;;;;;;;7.95;5.00;;;;;;;23.69;46.47;100548.30;1398588;93;22253;-61
2021/07/23 04:29:04;;;;;;;8.10;4.95;;;;;;;23.69;46.44;100552.89;1399253;93;21525;-62
2021/07/23 04:31:30;;;;;;;8.68;4.37;;;;;;;23.69;46.47;100555.05;1392622;93;21430;-61
2021/07/23 04:33:58;;;;;;;7.45;4.65;;;;;;;23.70;46.37;100550.47;1433581;91;21471;-61
2021/07/23 04:36:26;;;;;;;7.08;4.67;;;;;;;23.71;46.49;100554.34;1390995;93;21644;-61
2021/07/23 04:38:53;;;;;;;9.08;4.58;;;;;;;23.68;46.35;100547.16;1406289;93;21298;-61
2021/07/23 04:41:20;;;;;;;10.55;5.10;;;;;;;23.71;46.61;100554.84;1400351;93;21416;-61
2021/07/23 04:43:46;;;;;;;8.15;4.75;;;;;;;23.71;46.66;100555.69;1374849;94;21586;-61
2021/07/23 04:46:12;;;;;;;8.90;5.17;;;;;;;23.72;46.73;100550.56;1365739;94;21408;-61
2021/07/23 04:48:38;;;;;;;5.42;4.65;;;;;;;23.73;46.79;100551.39;1380201;94;21482;-61
2021/07/23 04:51:06;;;;;;;10.35;5.78;;;;;;;23.72;46.78;100545.16;1388419;94;21382;-61
2021/07/23 04:53:32;;;;;;;12.10;5.62;;;;;;;23.73;46.99;100550.85;1369967;94;21490;-61
2021/07/23 04:56:01;;;;;;;7.42;5.50;;;;;;;23.73;47.00;100550.85;1388704;94;21490;-61
2021/07/23 04:58:27;;;;;;;6.50;5.15;;;;;;;23.74;46.92;100547.65;1397580;93;21666;-61
2021/07/23 05:00:54;;;;;;;10.18;5.60;;;;;;;23.74;46.92;100547.65;1379742;94;21683;-61
2021/07/23 05:03:37;;;;;;;7.65;5.05;;;;;;;23.71;47.26;100541.33;1386505;94;21504;-62
2021/07/23 05:06:07;;;;;;;9.07;5.50;;;;;;;23.70;47.25;100549.97;1449767;90;22433;-62
2021/07/23 05:08:35;;;;;;;13.88;4.95;;;;;;;23.75;47.30;100552.80;1435721;89;21503;-63
2021/07/23 05:11:05;;;;;;;6.62;5.17;;;;;;;23.74;47.34;100556.58;1433824;90;21466;-61
2021/07/23 05:13:34;;;;;;;5.75;4.92;;;;;;;23.75;47.38;100550.10;1446030;90;21538;-62
2021/07/23 05:16:00;;;;;;;8.83;5.75;;;;;;;23.75;47.42;100550.10;1436975;90;21548;-61
2021/07/23 05:18:27;;;;;;;13.20;5.83;;;;;;;23.71;47.42;100545.38;1449632;90;21289;-61
2021/07/23 05:20:54;;;;;;;6.37;5.25;;;;;;;23.71;47.42;100545.38;1430842;90;21540;-62
2021/07/23 05:23:21;;;;;;;14.75;7.62;;;;;;;23.76;47.50;100553.62;1435140;90;21442;-64
2021/07/23 05:25:48;;;;;;;17.75;6.65;;;;;;;23.75;47.58;100556.86;1446708;90;21613;-63
2021/07/23 05:28:15;;;;;;;26.07;7.10;;;;;;;23.77;47.48;100558.81;1447774;90;21511;-63
2021/07/23 05:30:41;;;;;;;17.92;5.70;;;;;;;23.75;47.56;100551.45;1447518;90;21348;-64
2021/07/23 05:33:08;;;;;;;20.32;6.55;;;;;;;23.80;48.38;100555.64;1441293;90;21502;-69
2021/07/23 05:35:34;;;;;;;28.80;6.72;;;;;;;23.82;48.63;100553.55;1433902;90;21422;-65
2021/07/23 05:38:01;;;;;;;27.42;7.65;;;;;;;23.82;48.63;100553.55;1450566;90;21267;-65
2021/07/23 05:40:27;;;;;;;29.35;7.20;;;;;;;23.86;48.10;100554.71;1438886;90;21488;-63
2021/07/23 05:42:53;;;;;;;17.57;6.78;;;;;;;23.89;47.97;100550.72;1440459;89;22567;-73
2021/07/23 05:45:22;;;;;;;12.80;5.85;;;;;;;23.94;47.91;100554.06;1461409;90;21680;-72
2021/07/23 05:47:48;;;;;;;16.02;6.05;;;;;;;23.97;47.95;100553.62;1444287;90;21558;-62
2021/07/23 05:50:14;;;;;;;17.15;6.70;;;;;;;23.97;47.84;100554.45;1453314;90;21334;-67
2021/07/23 05:52:40;;;;;;;9.18;5.50;;;;;;;23.98;47.83;100557.44;1445008;90;22382;-64
2021/07/23 05:55:09;;;;;;;11.90;5.62;;;;;;;24.02;47.96;100551.02;1450602;90;21406;-62
2021/07/23 05:57:37;;;;;;;8.03;5.25;;;;;;;24.05;47.79;100549.20;1453517;90;22325;-63
2021/07/23 06:00:08;;;;;;;10.48;5.78;;;;;;;24.08;47.79;100551.44;1443213;90;21607;-63
2021/07/23 06:02:34;;;;;;;12.63;6.08;;;;;;;24.09;48.23;100553.10;1443032;90;21422;-63
2021/07/23 06:05:01;;;;;;;13.62;6.30;;;;;;;24.10;48.11;100547.98;1425646;90;21659;-63
2021/07/23 06:07:27;;;;;;;12.73;5.05;;;;;;;24.12;48.26;100547.23;1449125;90;22606;-62
2021/07/23 06:09:53;;;;;;;8.48;5.78;;;;;;;24.15;47.98;100552.16;1448439;90;21489;-63
2021/07/23 06:12:20;;;;;;;7.53;5.70;;;;;;;24.14;48.04;100549.17;1459736;90;22420;-63
2021/07/23 06:14:46;;;;;;;7.78;5.12;;;;;;;24.17;48.18;100549.20;1450414;90;21320;-63
2021/07/23 06:17:12;;;;;;;6.55;5.25;;;;;;;24.17;48.17;100550.06;1427850;90;21481;-64
2021/07/23 06:19:38;;;;;;;7.47;5.55;;;;;;;24.19;48.16;100554.68;1447606;90;21400;-63
2021/07/23 06:22:05;;;;;;;9.95;5.40;;;;;;;24.20;48.16;100547.42;1449919;90;21509;-63
2021/07/23 06:24:34;;;;;;;9.30;5.40;;;;;;;24.19;48.28;100547.11;1440812;90;22465;-64
2021/07/23 06:27:00;;;;;;;7.00;5.78;;;;;;;24.20;48.30;100550.13;1439446;90;21510;-62
2021/07/23 06:29:26;;;;;;;8.73;5.47;;;;;;;24.20;48.15;100550.94;1459790;90;21614;-64
2021/07/23 06:31:58;;;;;;;6.90;5.58;;;;;;;24.20;48.25;100549.59;1449027;90;21377;-63
2021/07/23 06:34:24;;;;;;;15.08;5.40;;;;;;;24.20;48.28;100550.94;1450803;90;21455;-64
2021/07/23 06:36:50;;;;;;;13.70;5.25;;;;;;;24.21;48.25;100551.22;1442317;90;21606;-63
2021/07/23 06:39:17;;;;;;;12.58;4.92;;;;;;;24.24;48.35;100544.52;1449232;90;21550;-62
2021/07/23 06:41:43;;;;;;;12.73;5.85;;;;;;;24.26;48.35;100551.34;1448364;89;21540;-61
2021/07/23 06:44:09;;;;;;;14.53;5.70;;;;;;;24.28;48.16;100550.59;1437367;90;21443;-62
2021/07/23 06:46:35;;;;;;;8.78;5.35;;;;;;;24.29;48.17;100552.23;1451069;90;21334;-60
2021/07/23 06:49:02;;;;;;;12.55;4.85;;;;;;;24.30;48.13;100552.52;1441249;90;21588;-62
2021/07/23 06:51:28;;;;;;;7.53;5.00;;;;;;;24.33;48.24;100553.92;1451877;90;21555;-61
2021/07/23 06:53:54;;;;;;;10.48;5.65;;;;;;;24.35;48.19;100557.77;1459433;90;21444;-63
2021/07/23 06:56:20;;;;;;;9.78;5.12;;;;;;;24.37;48.12;100551.56;1428526;90;21629;-61
2021/07/23 06:58:46;;;;;;;12.23;5.40;;;;;;;24.39;48.18;100548.11;1443836;90;21891;-60
2021/07/23 07:01:15;;;;;;;6.80;4.97;;;;;;;24.39;48.10;100548.92;1442241;90;21422;-62
2021/07/23 07:03:42;;;;;;;10.58;5.33;;;;;;;24.42;48.07;100551.16;1437595;90;21422;-63
2021/07/23 07:06:08;;;;;;;8.68;5.67;;;;;;;24.42;48.01;100547.09;1420401;90;22575;-62
2021/07/23 07:08:37;;;;;;;9.85;5.80;;;;;;;24.45;48.00;100552.59;1461969;90;21473;-63
2021/07/23 07:11:03;;;;;;;9.50;5.37;;;;;;;24.46;47.99;100547.50;1427018;90;21334;-63
2021/07/23 07:13:30;;;;;;;12.28;5.03;;;;;;;24.45;48.02;100545.30;1430255;90;21496;-62
2021/07/23 07:16:01;;;;;;;11.22;5.37;;;;;;;24.46;48.04;100556.44;1449271;90;22901;-63
2021/07/23 07:18:27;;;;;;;;;;;;;;;24.47;48.01;100553.20;1436698;90;22696;-61
2021/07/23 07:20:53;;;;;;;8.33;5.08;;;;;;;24.47;47.99;100545.08;1448692;90;20294;-61
2021/07/23 07:23:20;;;;;;;12.23;5.80;;;;;;;24.51;48.11;100550.30;1448844;90;21430;-61
2021/07/23 07:25:46;;;;;;;7.83;5.20;;;;;;;24.52;48.28;100540.61;1447439;90;21466;-61
2021/07/23 07:28:13;;;;;;;8.18;5.10;;;;;;;24.54;48.29;100540.35;1437381;90;21430;-59
2021/07/23 07:30:39;;;;;;;6.33;5.05;;;;;;;24.57;48.34;100543.12;1456796;90;21392;-62
2021/07/23 07:33:05;;;;;;;9.25;4.87;;;;;;;24.56;48.32;100540.95;1460309;90;21473;-61
2021/07/23 07:35:32;;;;;;;8.90;5.20;;;;;;;24.57;48.28;100545.31;1444884;90;21370;-61
2021/07/23 07:37:58;;;;;;;8.75;4.80;;;;;;;24.58;48.21;100540.72;1444966;90;21614;-61
2021/07/23 07:40:25;;;;;;;15.95;4.83;;;;;;;24.60;47.99;100540.78;1444671;90;21415;-61
2021/07/23 07:42:51;;;;;;;12.82;7.03;;;;;;;24.61;47.85;100541.06;1441940;90;21510;-61
2021/07/23 07:45:17;;;;;;;16.05;5.70;;;;;;;24.60;47.87;100542.13;1453307;90;21517;-60
2021/07/23 07:47:44;;;;;;;13.43;5.45;;;;;;;24.62;47.91;100534.58;1436276;90;21599;-60
2021/07/23 07:50:11;;;;;;;10.10;5.87;;;;;;;24.64;47.88;100538.41;1447023;90;21588;-61
2021/07/23 07:52:37;;;;;;;8.10;5.75;;;;;;;24.65;47.86;100532.75;1442696;90;21580;-60
2021/07/23 07:55:05;;;;;;;8.10;5.22;;;;;;;24.66;47.85;100535.77;1440827;90;22377;-61
2021/07/23 07:57:31;;;;;;;8.10;5.00;;;;;;;24.68;47.90;100536.87;1447592;90;21635;-60
2021/07/23 07:59:58;;;;;;;14.28;5.85;;;;;;;24.69;47.90;100531.23;1448491;90;21422;-62
2021/07/23 08:02:24;;;;;;;8.28;5.50;;;;;;;24.71;47.93;100537.20;1462868;90;22412;-61
2021/07/23 08:04:51;;;;;;;13.98;6.10;;;;;;;24.72;47.49;100538.05;1435257;90;21473;-62
2021/07/23 08:07:28;;;;;;;5.97;4.42;;;;;;;24.72;47.35;100538.87;1433500;90;21481;-61
2021/07/23 08:09:53;;;;;;;9.60;5.00;;;;;;;24.73;47.21;100532.92;1434364;90;21651;-61
2021/07/23 08:12:20;;;;;;;8.60;5.20;;;;;;;24.74;47.26;100533.20;1445135;90;21577;-61
2021/07/23 08:14:47;;;;;;;6.80;4.25;;;;;;;24.76;47.11;100537.32;1446369;90;21621;-62
2021/07/23 08:17:14;;;;;;;7.78;4.83;;;;;;;24.80;46.95;100538.20;1458262;90;21613;-62
2021/07/23 08:19:41;;;;;;;8.05;5.00;;;;;;;24.81;46.79;100533.09;1434225;90;21282;-61
2021/07/23 08:22:08;;;;;;;13.68;5.53;;;;;;;24.81;46.63;100535.80;1446690;90;21664;-61
2021/07/23 08:24:35;;;;;;;7.22;4.47;;;;;;;24.80;46.72;100535.48;1434660;90;21522;-62
2021/07/23 08:27:03;;;;;;;6.37;4.55;;;;;;;24.81;46.83;100538.50;1439326;90;21450;-62
2021/07/23 08:29:29;;;;;;;15.03;4.53;;;;;;;24.82;46.89;100537.44;1437256;90;21496;-62
2021/07/23 08:31:57;;;;;;;13.22;5.58;;;;;;;24.84;46.88;100535.32;1444474;90;21555;-63
2021/07/23 08:34:24;;;;;;;8.40;5.17;;;;;;;24.84;46.82;100532.61;1429736;90;22406;-62
2021/07/23 08:36:50;;;;;;;7.35;5.45;;;;;;;24.87;46.87;100541.07;1447464;90;21592;-61
2021/07/23 08:39:16;;;;;;;8.85;5.12;;;;;;;24.88;46.97;100533.77;1449480;90;21355;-61
2021/07/23 08:41:42;;;;;;;6.83;5.78;;;;;;;24.89;46.99;100534.89;1419621;89;22399;-62
2021/07/23 08:44:10;;;;;;;8.80;4.30;;;;;;;24.91;46.98;100539.52;1432874;90;21481;-63
2021/07/23 08:46:37;;;;;;;8.28;4.72;;;;;;;24.94;46.93;100539.57;1435457;90;21562;-62
2021/07/23 08:49:03;;;;;;;8.73;5.40;;;;;;;24.96;46.98;100539.63;1432388;90;21407;-63
2021/07/23 08:51:30;;;;;;;7.70;5.30;;;;;;;24.98;46.85;100536.16;1450404;90;21415;-62
2021/07/23 08:53:57;;;;;;;11.63;6.17;;;;;;;24.99;46.80;100538.33;1427756;90;21892;-62
2021/07/23 08:56:23;;;;;;;11.48;5.28;;;;;;;25.01;46.79;100533.50;1446033;90;21385;-61
2021/07/23 08:58:49;;;;;;;11.18;5.05;;;;;;;25.04;46.79;100533.55;1464378;90;21422;-61
2021/07/23 09:01:15;;;;;;;7.03;4.92;;;;;;;25.05;46.88;100535.19;1435109;90;21481;-61
2021/07/23 09:03:41;;;;;;;6.15;4.55;;;;;;;25.06;46.70;100528.20;1448606;90;22260;-61
2021/07/23 09:06:18;;;;;;;6.45;5.33;;;;;;;25.08;46.71;100535.52;1434440;90;21496;-60
2021/07/23 09:08:52;;;;;;;6.78;4.35;;;;;;;25.10;46.69;100534.76;1449771;90;21466;-60
2021/07/23 09:11:30;;;;;;;8.85;5.08;;;;;;;25.12;46.54;100531.83;1447309;90;21666;-63
2021/07/23 09:14:13;;;;;;;8.75;4.95;;;;;;;25.13;46.52;100528.86;1443832;90;21527;-61
2021/07/23 09:16:40;;;;;;;8.30;4.97;;;;;;;25.17;46.38;100530.58;1437154;90;21422;-62
2021/07/23 09:19:09;;;;;;;9.93;4.95;;;;;;;25.17;46.30;100534.10;1456160;90;21724;-60
2021/07/23 09:21:40;;;;;;;11.40;4.50;;;;;;;25.19;46.36;100526.56;1429092;90;21709;-61
2021/07/23 09:24:09;;;;;;;12.30;4.87;;;;;;;25.20;46.49;100519.26;1449008;90;21533;-61
2021/07/23 09:26:43;;;;;;;11.78;6.42;;;;;;;25.24;46.52;100520.98;1460329;90;21406;-61
2021/07/23 09:29:10;;;;;;;7.47;4.83;;;;;;;25.25;46.24;100519.90;1443612;90;21495;-60
2021/07/23 09:31:38;;;;;;;12.53;4.92;;;;;;;25.26;45.99;100518.83;1442321;90;21477;-61
2021/07/23 09:34:05;;;;;;;11.93;5.00;;;;;;;25.27;45.97;100519.95;1437364;90;21738;-60
2021/07/23 09:36:32;;;;;;;8.18;5.30;;;;;;;25.28;46.06;100524.29;1426885;90;22332;-60
2021/07/23 09:39:07;;;;;;;7.47;4.62;;;;;;;25.31;46.15;100517.57;1436395;90;21459;-60
2021/07/23 09:41:36;;;;;;;6.60;4.78;;;;;;;25.31;46.10;100518.39;1425756;89;21503;-60
2021/07/23 09:44:08;;;;;;;7.37;4.75;;;;;;;25.34;46.13;100511.66;1454170;90;21319;-60
2021/07/23 09:46:37;;;;;;;6.00;4.97;;;;;;;25.36;46.13;100509.55;1446014;90;21643;-60
2021/07/23 09:49:27;;;;;;;7.40;4.55;;;;;;;25.38;46.13;100511.48;1425260;90;21688;-61
2021/07/23 09:52:05;;;;;;;8.67;5.03;;;;;;;25.40;46.16;100506.62;1453331;90;21437;-60
2021/07/23 09:54:31;;;;;;;5.40;4.30;;;;;;;25.44;46.13;100511.33;1447954;90;22450;-61
2021/07/23 09:57:00;;;;;;;9.90;4.45;;;;;;;25.48;46.12;100505.41;1448617;90;21525;-60
2021/07/23 09:59:56;;;;;;;9.60;5.17;;;;;;;25.49;46.02;100501.63;1434109;90;21585;-60
2021/07/23 10:02:23;;;;;;;15.30;4.92;;;;;;;25.52;46.00;100499.27;1419926;90;21495;-59
2021/07/23 10:04:58;;;;;;;9.38;4.55;;;;;;;25.53;45.98;100503.62;1434293;90;21615;-61
2021/07/23 10:07:29;;;;;;;5.45;4.42;;;;;;;25.58;45.87;100507.78;1426080;90;21591;-61
2021/07/23 10:09:57;;;;;;;9.85;4.20;;;;;;;25.58;45.82;100498.29;1444246;90;21584;-61
2021/07/23 10:12:26;;;;;;;6.95;4.78;;;;;;;25.59;45.79;100498.56;1441721;90;21475;-61
2021/07/23 10:14:54;;;;;;;9.23;5.53;;;;;;;25.62;45.71;100499.43;1435437;90;21606;-60
2021/07/23 10:17:20;;;;;;;9.50;4.42;;;;;;;25.64;45.61;100497.84;1437343;90;21435;-60
2021/07/23 10:19:47;;;;;;;8.13;4.40;;;;;;;25.65;45.63;100494.87;1445021;90;22598;-62
2021/07/23 10:22:14;;;;;;;9.13;4.42;;;;;;;25.68;45.58;100492.75;1431016;90;21480;-61
2021/07/23 10:24:42;;;;;;;9.70;4.45;;;;;;;25.69;45.46;100494.37;1435648;90;21319;-61
2021/07/23 10:27:12;;;;;;;7.60;4.30;;;;;;;25.69;45.22;100487.60;1438297;90;21503;-61
2021/07/23 10:29:48;;;;;;;5.83;4.10;;;;;;;25.70;45.21;100487.38;1429211;90;21615;-61
2021/07/23 10:32:36;;;;;;;10.32;4.65;;;;;;;25.71;45.21;100480.05;1399358;91;21416;-62
2021/07/23 10:35:28;;;;;;;7.40;4.05;;;;;;;25.72;44.98;100484.40;1393386;94;21559;-62
2021/07/23 10:37:56;;;;;;;4.62;3.58;;;;;;;25.72;44.67;100484.40;1378619;94;22570;-61
2021/07/23 10:40:37;;;;;;;8.78;4.40;;;;;;;25.71;44.67;100483.58;1394578;94;22446;-62
2021/07/23 10:43:26;;;;;;;5.90;4.30;;;;;;;25.72;44.75;100487.95;1384391;94;21593;-62
2021/07/23 10:45:53;;;;;;;9.78;4.20;;;;;;;25.74;44.79;100483.63;1349168;95;21649;-61
2021/07/23 10:48:47;;;;;;;10.78;4.70;;;;;;;25.75;44.87;100481.19;1389122;95;21475;-65
2021/07/23 10:51:58;;;;;;;6.90;4.62;;;;;;;25.76;44.92;100482.31;1383930;94;21741;-61
2021/07/23 10:54:30;;;;;;;9.80;4.20;;;;;;;25.77;44.99;100473.11;1350755;94;22542;-61
2021/07/23 10:57:02;;;;;;;6.80;4.10;;;;;;;25.79;44.92;100470.98;1378548;94;21566;-61
2021/07/23 10:59:44;;;;;;;8.43;4.30;;;;;;;25.80;44.83;100462.30;1363146;95;21712;-64
2021/07/23 11:02:19;;;;;;;7.20;4.17;;;;;;;25.82;44.40;100468.31;1398548;93;21504;-61
2021/07/23 11:04:46;;;;;;;10.50;4.67;;;;;;;25.83;43.95;100457.77;1395644;93;21424;-63
2021/07/23 11:07:15;;;;;;;7.37;4.55;;;;;;;25.83;44.00;100461.30;1415650;93;21534;-62
2021/07/23 11:09:45;;;;;;;7.00;4.17;;;;;;;25.85;43.93;100459.71;1394760;93;22592;-62
2021/07/23 11:12:21;;;;;;;6.75;3.70;;;;;;;25.86;44.20;100451.86;1406741;93;22296;-65
2021/07/23 11:14:57;;;;;;;7.87;3.90;;;;;;;25.88;44.23;100452.44;1405667;93;21512;-61
2021/07/23 11:17:27;;;;;;;6.40;4.37;;;;;;;25.89;44.28;100447.28;1383841;93;21446;-62
2021/07/23 11:19:58;;;;;;;10.28;4.20;;;;;;;25.90;44.29;100447.59;1401452;93;22621;-63
2021/07/23 11:22:27;;;;;;;12.07;3.95;;;;;;;25.92;44.39;100444.08;1391998;92;21755;-64
2021/07/23 11:25:05;;;;;;;7.92;4.62;;;;;;;25.94;44.23;100437.06;1411948;93;22317;-62
2021/07/23 11:27:37;;;;;;;8.88;4.60;;;;;;;25.94;44.03;100431.10;1394097;93;22801;-64
2021/07/23 11:30:17;;;;;;;8.08;4.28;;;;;;;25.96;43.85;100425.45;1397516;93;22526;-64
2021/07/23 11:32:55;;;;;;;8.00;4.87;;;;;;;25.97;43.68;100433.31;1398347;92;21438;-62